ITM weather

Osaka International Airport
Osaka, Ōsaka Prefecture, Japan

Public forecast

Using degrees Celsius for public forecast. Weather courtesy of forecast.io.

METAR (pilot weather report)

Report is more than 6 hours old.

Retrieved 2019/05/22 11:00 UTC (7 hours ago):

RJOO 221100Z 34007KT 310V030 9999 FEW035 22/05 Q1007 RMK 1CU035 A2975

TAF (pilot weather forecast)

Retrieved 2019/05/22 18:32 UTC (0 seconds ago):

TAF RJOO 221707Z 2218/2400 32004KT 9999 FEW030 BECMG 2300/2302 22008KT BECMG 2309/2312 32004KT